Time;durP1;ratioP1;P1;durP2;ratioP2;P2;SDS_P1;SDS_P2;PMS_P1;PMS_P2;Temp;Humidity;BMP_temperature;BMP_pressure;BME280_temperature;BME280_humidity;BME280_pressure;Samples;Min_cycle;Max_cycle;Signal;HPM_P1;HPM_P2
2023/09/27 00:02:21;;;;;;;32.67;25.80;;;15.20;99.90;;;;;;5074045;28;20044;-79
2023/09/27 00:04:47;;;;;;;30.27;25.13;;;15.20;99.90;;;;;;5072738;28;20053;-79
2023/09/27 00:07:12;;;;;;;32.72;25.85;;;15.20;99.90;;;;;;5074088;28;20086;-79
2023/09/27 00:09:38;;;;;;;32.20;25.80;;;15.10;99.90;;;;;;5073810;28;20372;-79
2023/09/27 00:12:05;;;;;;;29.58;24.67;;;15.10;99.90;;;;;;5072744;28;20041;-79
2023/09/27 00:14:32;;;;;;;31.80;24.67;;;15.10;99.90;;;;;;5072841;28;20044;-79
2023/09/27 00:17:00;;;;;;;32.85;25.17;;;15.00;99.90;;;;;;5073831;28;20044;-79
2023/09/27 00:19:26;;;;;;;29.42;24.33;;;15.10;99.90;;;;;;5072241;28;20064;-79
2023/09/27 00:21:52;;;;;;;28.90;24.73;;;15.10;99.90;;;;;;5073967;28;20044;-79
2023/09/27 00:24:17;;;;;;;30.85;25.10;;;15.00;99.90;;;;;;5072488;28;20048;-80
2023/09/27 00:26:44;;;;;;;31.65;25.23;;;15.10;99.90;;;;;;5073632;28;20037;-80
2023/09/27 00:29:10;;;;;;;30.45;24.23;;;15.10;99.90;;;;;;5072508;28;20123;-79
2023/09/27 00:31:35;;;;;;;30.23;24.50;;;15.10;99.90;;;;;;5073760;28;20186;-79
2023/09/27 00:34:01;;;;;;;32.22;24.73;;;15.10;99.90;;;;;;5073618;28;20507;-79
2023/09/27 00:36:26;;;;;;;29.95;25.52;;;15.10;99.90;;;;;;5072366;28;20157;-79
2023/09/27 00:38:52;;;;;;;28.92;24.50;;;15.00;99.90;;;;;;5073604;28;20047;-79
2023/09/27 00:41:18;;;;;;;29.17;24.35;;;15.00;99.90;;;;;;5073388;28;20040;-79
2023/09/27 00:43:43;;;;;;;30.08;23.73;;;15.00;99.90;;;;;;5072256;28;20137;-79
2023/09/27 00:46:14;;;;;;;31.95;24.25;;;15.00;99.90;;;;;;5072073;28;20125;-79
2023/09/27 00:48:40;;;;;;;31.50;24.63;;;15.00;99.90;;;;;;5072495;28;20045;-79
2023/09/27 00:51:06;;;;;;;30.80;25.15;;;15.00;99.90;;;;;;5073498;28;20036;-80
2023/09/27 00:53:33;;;;;;;33.15;25.70;;;15.00;99.90;;;;;;5074018;28;20048;-80
2023/09/27 00:56:00;;;;;;;31.73;25.48;;;14.90;99.90;;;;;;5073382;28;20080;-79
2023/09/27 00:58:25;;;;;;;32.55;25.67;;;14.90;99.90;;;;;;5072167;28;20049;-80
2023/09/27 01:00:52;;;;;;;32.58;25.40;;;14.90;99.90;;;;;;5071913;28;20041;-80
2023/09/27 01:03:18;;;;;;;32.10;26.52;;;14.90;99.90;;;;;;5071868;28;20131;-79
2023/09/27 01:05:46;;;;;;;31.48;25.38;;;14.80;99.90;;;;;;5071887;28;20072;-79
2023/09/27 01:08:11;;;;;;;30.38;25.00;;;14.80;99.90;;;;;;5072048;28;20052;-79
2023/09/27 01:10:37;;;;;;;34.92;26.70;;;14.80;99.90;;;;;;5073171;28;20044;-79
2023/09/27 01:13:04;;;;;;;31.15;24.65;;;14.80;99.90;;;;;;5073367;28;20048;-79
2023/09/27 01:15:30;;;;;;;30.83;24.80;;;14.80;99.90;;;;;;5073297;28;20075;-79
2023/09/27 01:18:02;;;;;;;31.50;26.50;;;14.80;99.90;;;;;;5071831;28;20540;-79
2023/09/27 01:20:29;;;;;;;31.77;26.10;;;14.80;99.90;;;;;;5071903;28;20491;-79
2023/09/27 01:22:59;;;;;;;31.92;25.75;;;14.80;99.90;;;;;;5071816;28;20048;-80
2023/09/27 01:25:29;;;;;;;31.13;25.02;;;14.80;99.90;;;;;;5073329;28;20044;-79
2023/09/27 01:27:56;;;;;;;31.75;24.40;;;14.80;99.90;;;;;;5073591;28;20064;-79
2023/09/27 01:30:22;;;;;;;35.03;26.70;;;14.80;99.90;;;;;;5072130;28;20190;-79
2023/09/27 01:32:48;;;;;;;35.45;26.83;;;14.80;99.90;;;;;;5073191;28;20107;-79
2023/09/27 01:35:13;;;;;;;31.58;26.15;;;14.80;99.90;;;;;;5072145;28;20109;-79
2023/09/27 01:37:39;;;;;;;29.25;25.15;;;14.80;99.90;;;;;;5072081;28;20450;-79
2023/09/27 01:40:09;;;;;;;31.23;24.27;;;14.70;99.90;;;;;;5072990;28;20067;-80
2023/09/27 01:42:41;;;;;;;31.10;24.58;;;14.70;99.90;;;;;;5072042;28;20047;-80
2023/09/27 01:45:07;;;;;;;35.20;25.65;;;14.70;99.90;;;;;;5073165;28;20040;-79
2023/09/27 01:47:33;;;;;;;31.23;25.95;;;14.70;99.90;;;;;;5073054;28;20086;-80
2023/09/27 01:49:58;;;;;;;31.75;24.90;;;14.70;99.90;;;;;;5073538;28;20052;-79
2023/09/27 01:52:24;;;;;;;32.17;25.45;;;14.70;99.90;;;;;;5075543;28;20051;-79
2023/09/27 01:54:50;;;;;;;32.15;25.50;;;14.70;99.90;;;;;;5076520;28;20036;-80
2023/09/27 01:57:15;;;;;;;30.23;25.05;;;14.70;99.90;;;;;;5076439;28;20123;-80
2023/09/27 01:59:41;;;;;;;32.22;25.30;;;14.80;99.90;;;;;;5075253;28;20116;-80
2023/09/27 02:02:06;;;;;;;28.10;23.25;;;14.80;99.90;;;;;;5076357;28;20410;-80
2023/09/27 02:04:32;;;;;;;29.98;25.15;;;14.70;99.90;;;;;;5075305;28;20101;-80
2023/09/27 02:06:57;;;;;;;30.67;24.92;;;14.70;99.90;;;;;;5075005;28;20045;-80
2023/09/27 02:09:23;;;;;;;28.98;23.95;;;14.70;99.90;;;;;;5075251;28;20052;-80
2023/09/27 02:11:49;;;;;;;28.35;24.63;;;14.70;99.90;;;;;;5076257;28;20044;-79
2023/09/27 02:14:14;;;;;;;30.25;24.40;;;14.70;99.90;;;;;;5074725;28;20456;-79
2023/09/27 02:16:43;;;;;;;31.85;25.00;;;14.70;99.90;;;;;;5074837;28;20040;-79
2023/09/27 02:19:08;;;;;;;33.40;24.77;;;14.70;99.90;;;;;;5074483;28;20388;-79
2023/09/27 02:21:34;;;;;;;34.17;24.73;;;14.70;99.90;;;;;;5076086;28;20052;-80
2023/09/27 02:24:00;;;;;;;32.28;24.98;;;14.70;99.90;;;;;;5074685;28;20076;-79
2023/09/27 02:26:25;;;;;;;33.05;25.60;;;14.70;99.90;;;;;;5074396;28;20098;-79
2023/09/27 02:28:51;;;;;;;37.35;25.95;;;14.70;99.90;;;;;;5074498;28;20048;-79
2023/09/27 02:31:17;;;;;;;30.55;25.38;;;14.70;99.90;;;;;;5074755;28;20052;-80
2023/09/27 02:33:42;;;;;;;30.13;24.33;;;14.70;99.90;;;;;;5074313;28;20443;-80
2023/09/27 02:36:08;;;;;;;30.58;24.75;;;14.70;99.90;;;;;;5075804;28;20037;-80
2023/09/27 02:38:36;;;;;;;29.70;24.92;;;14.80;99.90;;;;;;5075741;28;20040;-79
2023/09/27 02:41:02;;;;;;;34.53;26.02;;;14.70;99.90;;;;;;5075643;28;20392;-80
2023/09/27 02:43:28;;;;;;;30.58;25.00;;;14.70;99.90;;;;;;5074143;28;20055;-80
2023/09/27 02:45:53;;;;;;;32.97;25.25;;;14.80;99.90;;;;;;5074174;28;20036;-79
2023/09/27 02:48:19;;;;;;;32.92;26.08;;;14.70;99.90;;;;;;5074489;28;20147;-79
2023/09/27 02:50:52;;;;;;;31.50;24.60;;;14.80;99.90;;;;;;5074428;28;20130;-79
2023/09/27 02:53:18;;;;;;;34.72;26.42;;;14.70;99.90;;;;;;5073970;28;20055;-79
2023/09/27 02:55:44;;;;;;;33.28;26.33;;;14.70;99.90;;;;;;5075355;28;20037;-79
2023/09/27 02:58:10;;;;;;;29.75;24.23;;;14.70;99.90;;;;;;5074159;28;20044;-79
2023/09/27 03:00:36;;;;;;;31.10;24.48;;;14.70;99.90;;;;;;5073920;28;20048;-79
2023/09/27 03:03:03;;;;;;;33.15;25.33;;;14.70;99.90;;;;;;5072862;28;20498;-79
2023/09/27 03:05:33;;;;;;;30.55;24.23;;;14.70;99.90;;;;;;5079402;28;20127;-79
2023/09/27 03:07:59;;;;;;;30.25;24.63;;;14.70;99.90;;;;;;5095423;28;20089;-79
2023/09/27 03:10:24;;;;;;;33.00;26.23;;;14.70;99.90;;;;;;5095311;28;20146;-79
2023/09/27 03:12:54;;;;;;;33.95;26.30;;;14.70;99.90;;;;;;5094142;28;20395;-79
2023/09/27 03:15:19;;;;;;;34.05;25.08;;;14.60;99.90;;;;;;5094062;28;20494;-79
2023/09/27 03:17:47;;;;;;;30.98;25.73;;;14.70;99.90;;;;;;5093891;28;20044;-79
2023/09/27 03:20:16;;;;;;;36.45;27.40;;;14.70;99.90;;;;;;5093900;28;20044;-79
2023/09/27 03:22:42;;;;;;;32.60;25.95;;;14.70;99.90;;;;;;5093478;28;20052;-79
2023/09/27 03:25:09;;;;;;;32.33;24.80;;;14.60;99.90;;;;;;5093855;28;20056;-79
2023/09/27 03:27:36;;;;;;;34.78;27.38;;;14.60;99.90;;;;;;5094796;28;20097;-79
2023/09/27 03:30:01;;;;;;;35.22;27.17;;;14.60;99.90;;;;;;5094978;28;20109;-79
2023/09/27 03:32:27;;;;;;;35.35;26.95;;;14.60;99.90;;;;;;5094910;28;20417;-79
2023/09/27 03:34:52;;;;;;;35.25;28.17;;;14.60;99.90;;;;;;5094754;28;20079;-79
2023/09/27 03:37:18;;;;;;;31.60;26.50;;;14.60;99.90;;;;;;5093529;28;20036;-79
2023/09/27 03:39:44;;;;;;;34.90;26.42;;;14.70;99.90;;;;;;5094843;28;20040;-79
2023/09/27 03:42:09;;;;;;;35.63;28.67;;;14.60;99.90;;;;;;5093269;28;20048;-79
2023/09/27 03:44:35;;;;;;;35.72;27.42;;;14.60;99.90;;;;;;5093327;28;20055;-79
2023/09/27 03:47:01;;;;;;;38.63;28.77;;;14.70;99.90;;;;;;5094697;28;20067;-79
2023/09/27 03:49:26;;;;;;;33.03;28.40;;;14.60;99.90;;;;;;5093399;28;20067;-79
2023/09/27 03:51:52;;;;;;;33.58;27.92;;;14.60;99.90;;;;;;5093088;28;20047;-79
2023/09/27 03:54:18;;;;;;;36.53;27.42;;;14.60;99.90;;;;;;5093015;28;20113;-79
2023/09/27 03:56:43;;;;;;;31.27;24.02;;;14.60;99.90;;;;;;5094523;28;20479;-79
2023/09/27 03:59:09;;;;;;;33.38;26.63;;;14.60;99.90;;;;;;5094384;28;20120;-79
2023/09/27 04:01:35;;;;;;;35.88;28.50;;;14.60;99.90;;;;;;5093044;28;20480;-79
2023/09/27 04:04:04;;;;;;;36.80;29.27;;;14.50;99.90;;;;;;5094515;28;20604;-79
2023/09/27 04:06:29;;;;;;;34.33;27.77;;;14.50;99.90;;;;;;5093203;28;20044;-79
2023/09/27 04:08:55;;;;;;;34.67;27.48;;;14.50;99.90;;;;;;5093350;28;20055;-79
2023/09/27 04:11:20;;;;;;;33.13;26.42;;;14.40;99.90;;;;;;5094466;28;20048;-79
2023/09/27 04:13:48;;;;;;;36.00;29.17;;;14.40;99.90;;;;;;5092784;28;20131;-79
2023/09/27 04:16:14;;;;;;;35.67;29.10;;;14.30;99.90;;;;;;5094188;28;20131;-79
2023/09/27 04:18:43;;;;;;;35.97;28.38;;;14.30;99.90;;;;;;5093795;28;20098;-79
2023/09/27 04:21:09;;;;;;;37.40;28.90;;;14.20;99.90;;;;;;5093970;28;20122;-79
2023/09/27 04:23:36;;;;;;;34.92;29.45;;;14.20;99.90;;;;;;5092533;28;20136;-79
2023/09/27 04:26:05;;;;;;;35.22;28.23;;;14.10;99.90;;;;;;5093963;28;20118;-79
2023/09/27 04:28:32;;;;;;;32.95;27.02;;;14.10;99.90;;;;;;5093992;28;20077;-79
2023/09/27 04:31:01;;;;;;;36.15;28.80;;;14.10;99.90;;;;;;5092658;28;20119;-79
2023/09/27 04:33:27;;;;;;;38.35;30.55;;;14.00;99.90;;;;;;5092358;28;20079;-79
2023/09/27 04:35:52;;;;;;;37.33;29.95;;;14.00;99.90;;;;;;5094440;28;20067;-79
2023/09/27 04:38:18;;;;;;;35.28;28.67;;;14.00;99.90;;;;;;5092746;28;20470;-79
2023/09/27 04:40:44;;;;;;;39.33;30.20;;;14.00;99.90;;;;;;5093775;28;20044;-79
2023/09/27 04:43:09;;;;;;;36.67;29.33;;;13.90;99.90;;;;;;5092593;28;20040;-79
2023/09/27 04:45:35;;;;;;;37.80;29.63;;;13.90;99.90;;;;;;5093809;28;20567;-79
2023/09/27 04:48:01;;;;;;;36.10;30.20;;;13.90;99.90;;;;;;5092458;28;20081;-79
2023/09/27 04:50:26;;;;;;;34.88;28.33;;;13.80;99.90;;;;;;5093540;28;20052;-79
2023/09/27 04:52:52;;;;;;;38.53;30.05;;;13.70;99.90;;;;;;5093517;28;20042;-79
2023/09/27 04:55:18;;;;;;;42.72;30.90;;;13.70;99.90;;;;;;5092601;28;20063;-79
2023/09/27 04:57:43;;;;;;;43.15;31.50;;;13.70;99.90;;;;;;5093626;28;20040;-79
2023/09/27 05:00:19;;;;;;;40.10;32.17;;;13.70;99.90;;;;;;5092422;28;20151;-79
2023/09/27 05:02:45;;;;;;;44.70;34.03;;;13.80;99.90;;;;;;5092516;28;20040;-80
2023/09/27 05:05:11;;;;;;;40.08;31.42;;;13.80;99.90;;;;;;5092167;28;20105;-79
2023/09/27 05:07:37;;;;;;;44.72;33.97;;;13.80;99.90;;;;;;5092945;28;20048;-79
2023/09/27 05:10:03;;;;;;;44.63;32.30;;;13.80;99.90;;;;;;5093429;28;20051;-79
2023/09/27 05:12:28;;;;;;;43.58;32.35;;;13.80;99.90;;;;;;5092507;28;20483;-79
2023/09/27 05:14:56;;;;;;;43.63;33.80;;;13.80;99.90;;;;;;5092457;28;20423;-79
2023/09/27 05:17:22;;;;;;;40.40;31.35;;;13.80;99.90;;;;;;5093304;28;20131;-79
2023/09/27 05:19:48;;;;;;;49.17;34.63;;;13.80;99.90;;;;;;5091501;28;20193;-80
2023/09/27 05:22:14;;;;;;;45.03;33.08;;;13.80;99.90;;;;;;5092754;28;20044;-79
2023/09/27 05:24:43;;;;;;;49.63;35.47;;;13.80;99.90;;;;;;5092225;28;20529;-79
2023/09/27 05:27:09;;;;;;;47.03;33.97;;;13.90;99.90;;;;;;5097166;28;20089;-80
2023/09/27 05:29:35;;;;;;;48.97;35.55;;;13.90;99.90;;;;;;5096084;28;20047;-79
2023/09/27 05:32:01;;;;;;;42.80;33.40;;;13.90;99.90;;;;;;5095804;28;20138;-79
2023/09/27 05:34:29;;;;;;;46.10;34.08;;;13.90;99.90;;;;;;5097042;28;20406;-79
2023/09/27 05:36:55;;;;;;;43.78;34.10;;;13.90;99.90;;;;;;5096058;28;20044;-80
2023/09/27 05:39:22;;;;;;;45.20;33.30;;;13.80;99.90;;;;;;5097084;28;20398;-80
2023/09/27 05:41:47;;;;;;;45.35;32.78;;;13.80;99.90;;;;;;5095738;28;20052;-80
2023/09/27 05:44:13;;;;;;;43.38;33.45;;;13.80;99.90;;;;;;5096827;28;20044;-79
2023/09/27 05:46:40;;;;;;;42.58;32.83;;;13.80;99.90;;;;;;5095573;28;20048;-80
2023/09/27 05:49:09;;;;;;;41.65;30.63;;;13.80;99.90;;;;;;5096910;28;20085;-80
2023/09/27 05:51:35;;;;;;;46.60;31.63;;;13.80;99.90;;;;;;5095341;28;20496;-80
2023/09/27 05:54:01;;;;;;;50.00;34.85;;;13.80;99.90;;;;;;5095084;28;20130;-80
2023/09/27 05:56:27;;;;;;;40.90;31.17;;;13.80;99.90;;;;;;5095753;28;20135;-80
2023/09/27 05:58:54;;;;;;;47.85;35.10;;;13.80;99.90;;;;;;5095350;28;20086;-80
2023/09/27 06:01:20;;;;;;;42.22;32.58;;;13.90;99.90;;;;;;5096378;28;20467;-80
2023/09/27 06:03:49;;;;;;;47.83;34.50;;;13.80;99.90;;;;;;5096562;28;20089;-79
2023/09/27 06:06:15;;;;;;;46.72;32.92;;;13.90;99.90;;;;;;5096537;28;20105;-80
2023/09/27 06:08:41;;;;;;;46.10;34.30;;;13.90;99.90;;;;;;5095268;28;20048;-80
2023/09/27 06:11:08;;;;;;;51.03;36.53;;;13.90;99.90;;;;;;5094998;28;20052;-79
2023/09/27 06:13:36;;;;;;;49.85;36.40;;;14.00;99.90;;;;;;5095111;28;20543;-79
2023/09/27 06:16:02;;;;;;;47.45;36.60;;;14.00;99.90;;;;;;5096159;28;20130;-79
2023/09/27 06:18:30;;;;;;;51.78;36.72;;;13.90;99.90;;;;;;5096047;28;20058;-80
2023/09/27 06:20:55;;;;;;;53.13;36.00;;;13.90;99.90;;;;;;5096111;28;20047;-79
2023/09/27 06:23:21;;;;;;;44.70;33.55;;;13.90;99.90;;;;;;5096208;28;20048;-79
2023/09/27 06:25:48;;;;;;;45.75;35.47;;;13.90;99.90;;;;;;5094973;28;20043;-80
2023/09/27 06:28:14;;;;;;;50.72;37.60;;;13.90;99.90;;;;;;5096074;28;20044;-80
2023/09/27 06:30:40;;;;;;;48.47;35.97;;;13.90;99.90;;;;;;5095776;28;20043;-80
2023/09/27 06:33:07;;;;;;;50.42;38.00;;;14.00;99.90;;;;;;5094558;28;20079;-79
2023/09/27 06:35:33;;;;;;;49.60;35.97;;;14.00;99.90;;;;;;5094593;28;20479;-79
2023/09/27 06:38:00;;;;;;;51.55;37.42;;;14.00;99.90;;;;;;5088385;28;20046;-78
2023/09/27 06:40:29;;;;;;;49.80;38.10;;;14.00;99.90;;;;;;5074901;28;20048;-78
2023/09/27 06:42:55;;;;;;;51.20;37.08;;;14.10;99.90;;;;;;5073964;28;20089;-77
2023/09/27 06:45:21;;;;;;;50.92;36.88;;;14.10;99.90;;;;;;5075320;28;20040;-78
2023/09/27 06:47:46;;;;;;;46.30;34.88;;;14.10;99.90;;;;;;5075054;28;20094;-79
2023/09/27 06:50:14;;;;;;;55.75;39.10;;;14.20;99.90;;;;;;5086510;28;20044;-80
2023/09/27 06:52:40;;;;;;;51.95;37.42;;;14.40;99.90;;;;;;5079461;28;20052;-80
2023/09/27 06:55:16;;;;;;;50.75;38.38;;;14.40;99.90;;;;;;5074987;28;20052;-80
2023/09/27 06:57:44;;;;;;;49.80;37.90;;;14.50;99.90;;;;;;5073683;28;20037;-80
2023/09/27 07:00:18;;;;;;;56.17;39.22;;;14.60;99.90;;;;;;5073823;28;20056;-80
2023/09/27 07:02:50;;;;;;;51.15;37.90;;;14.60;99.90;;;;;;5074582;28;20513;-80
2023/09/27 07:05:16;;;;;;;50.15;37.63;;;14.70;99.90;;;;;;5073596;28;20492;-80
2023/09/27 07:07:42;;;;;;;48.90;35.97;;;14.70;99.90;;;;;;5073562;28;20036;-78
2023/09/27 07:10:09;;;;;;;49.45;37.25;;;14.80;99.90;;;;;;5072313;28;20498;-78
2023/09/27 07:12:37;;;;;;;50.88;36.70;;;14.80;99.90;;;;;;5073313;28;20036;-78
2023/09/27 07:15:08;;;;;;;53.25;37.88;;;14.90;99.90;;;;;;5073764;28;20044;-78
2023/09/27 07:17:34;;;;;;;48.72;35.75;;;14.90;99.90;;;;;;5074467;28;20120;-77
2023/09/27 07:20:09;;;;;;;49.50;36.28;;;15.00;99.90;;;;;;5073090;28;20136;-77
2023/09/27 07:22:36;;;;;;;48.63;36.45;;;15.00;99.90;;;;;;5073309;28;20115;-78
2023/09/27 07:25:03;;;;;;;50.88;35.03;;;15.10;99.90;;;;;;5073122;28;20052;-78
2023/09/27 07:27:29;;;;;;;51.58;37.25;;;15.20;99.90;;;;;;5073079;28;20094;-78
2023/09/27 07:29:55;;;;;;;48.88;36.05;;;15.20;99.90;;;;;;5073292;28;20056;-78
2023/09/27 07:32:20;;;;;;;50.55;37.20;;;15.20;99.90;;;;;;5074503;28;20044;-79
2023/09/27 07:34:47;;;;;;;47.33;36.13;;;15.30;99.90;;;;;;5072868;28;20055;-78
2023/09/27 07:37:14;;;;;;;44.92;35.33;;;15.30;99.90;;;;;;5073175;28;20125;-77
2023/09/27 07:39:39;;;;;;;46.63;32.28;;;15.30;99.90;;;;;;5074064;28;20476;-77
2023/09/27 07:42:14;;;;;;;52.75;36.33;;;15.40;99.90;;;;;;5073058;28;20052;-77
2023/09/27 07:44:40;;;;;;;46.70;33.20;;;15.50;99.90;;;;;;5073873;28;20055;-77
2023/09/27 07:47:06;;;;;;;48.65;35.88;;;15.50;99.90;;;;;;5074220;28;20033;-76
2023/09/27 07:49:32;;;;;;;48.83;35.05;;;15.60;99.90;;;;;;5072295;28;20075;-76
2023/09/27 07:51:58;;;;;;;47.85;33.92;;;15.60;99.90;;;;;;5073826;28;20147;-77
2023/09/27 07:54:24;;;;;;;50.08;36.35;;;15.70;99.90;;;;;;5073981;28;20479;-76
2023/09/27 07:56:50;;;;;;;48.40;35.30;;;15.70;99.90;;;;;;5072745;28;20066;-77
2023/09/27 07:59:18;;;;;;;47.15;35.22;;;15.80;99.90;;;;;;5073635;28;20387;-77
2023/09/27 08:01:44;;;;;;;48.17;34.63;;;15.80;99.90;;;;;;5073084;28;20048;-77
2023/09/27 08:04:12;;;;;;;42.63;32.65;;;15.80;99.90;;;;;;5073730;28;20048;-77
2023/09/27 08:06:39;;;;;;;50.33;36.33;;;15.80;99.90;;;;;;5072305;28;20102;-78
2023/09/27 08:09:08;;;;;;;45.47;34.88;;;15.90;99.90;;;;;;5073676;28;20139;-77
2023/09/27 08:11:33;;;;;;;50.17;35.17;;;15.90;99.90;;;;;;5072592;28;20135;-76
2023/09/27 08:13:59;;;;;;;44.90;34.25;;;16.00;99.90;;;;;;5072221;28;20055;-78
2023/09/27 08:16:26;;;;;;;50.67;36.03;;;16.10;99.90;;;;;;5072464;28;20048;-78
2023/09/27 08:18:52;;;;;;;50.35;35.30;;;16.20;99.90;;;;;;5073442;28;20062;-77
2023/09/27 08:21:18;;;;;;;47.78;35.05;;;16.20;99.90;;;;;;5073377;28;20051;-79
2023/09/27 08:23:44;;;;;;;50.38;35.63;;;16.40;99.90;;;;;;5072013;28;20102;-77
2023/09/27 08:26:12;;;;;;;48.38;34.60;;;16.40;99.90;;;;;;5073612;28;20036;-88
2023/09/27 08:28:38;;;;;;;46.05;32.88;;;16.40;99.90;;;;;;5072495;28;20132;-94
2023/09/27 08:31:04;;;;;;;45.53;34.45;;;16.50;99.90;;;;;;5072298;28;20537;-88
2023/09/27 08:33:30;;;;;;;47.58;33.03;;;16.50;99.90;;;;;;5072325;28;20055;-88
2023/09/27 08:35:56;;;;;;;40.08;31.25;;;16.50;99.90;;;;;;5072005;28;20048;-88
2023/09/27 08:38:21;;;;;;;39.97;31.05;;;16.60;99.90;;;;;;5071973;28;20090;-86
2023/09/27 08:40:48;;;;;;;42.35;30.88;;;16.70;99.90;;;;;;5071896;28;20507;-88
2023/09/27 08:43:17;;;;;;;40.45;30.00;;;16.70;99.90;;;;;;5071679;28;20048;-87
2023/09/27 08:45:45;;;;;;;39.92;29.40;;;16.80;99.90;;;;;;5072063;28;20059;-91
2023/09/27 08:48:16;;;;;;;42.70;28.02;;;16.80;99.90;;;;;;5071958;28;20049;-89
2023/09/27 08:50:42;;;;;;;41.08;28.77;;;17.00;99.90;;;;;;5072246;28;20045;-76
2023/09/27 08:53:11;;;;;;;38.40;30.33;;;17.10;99.90;;;;;;5073038;28;20044;-76
2023/09/27 08:55:40;;;;;;;37.40;29.20;;;17.10;99.90;;;;;;5073293;28;20125;-77
2023/09/27 08:58:10;;;;;;;40.47;31.15;;;17.20;99.90;;;;;;5071595;28;20098;-77
2023/09/27 09:00:36;;;;;;;39.80;29.73;;;17.20;99.90;;;;;;5073266;28;20051;-77
2023/09/27 09:03:02;;;;;;;39.58;29.58;;;17.30;99.90;;;;;;5076898;28;20044;-77
2023/09/27 09:05:29;;;;;;;35.53;27.98;;;17.40;99.90;;;;;;5076188;28;20045;-77
2023/09/27 09:07:55;;;;;;;34.33;26.15;;;17.50;99.90;;;;;;5076919;28;20127;-77
2023/09/27 09:10:22;;;;;;;42.90;27.42;;;17.60;99.90;;;;;;5077270;28;20055;-78
2023/09/27 09:12:49;;;;;;;37.17;25.85;;;17.70;99.90;;;;;;5077163;28;20052;-79
2023/09/27 09:15:26;;;;;;;35.72;27.00;;;17.80;99.90;;;;;;5075747;28;20127;-78
2023/09/27 09:17:57;;;;;;;37.72;26.80;;;17.80;99.90;;;;;;5075609;28;20060;-78
2023/09/27 09:20:28;;;;;;;35.38;26.65;;;17.80;99.90;;;;;;5076932;28;20063;-79
2023/09/27 09:22:57;;;;;;;38.40;26.27;;;17.90;99.90;;;;;;5075644;28;20048;-78
2023/09/27 09:25:27;;;;;;;33.97;24.05;;;18.00;99.90;;;;;;5077128;28;20119;-78
2023/09/27 09:28:07;;;;;;;38.17;25.75;;;18.00;99.90;;;;;;5075880;28;20067;-78
2023/09/27 09:30:37;;;;;;;33.92;24.13;;;18.10;99.90;;;;;;5077074;28;20530;-78
2023/09/27 09:33:15;;;;;;;33.30;24.63;;;18.20;99.90;;;;;;5075638;28;20051;-77
2023/09/27 09:35:40;;;;;;;35.28;24.10;;;18.30;99.90;;;;;;5075694;28;20040;-79
2023/09/27 09:38:06;;;;;;;31.95;22.48;;;18.30;99.90;;;;;;5075315;28;20517;-77
2023/09/27 09:40:34;;;;;;;28.65;22.40;;;18.40;99.90;;;;;;5076873;28;20119;-78
2023/09/27 09:43:00;;;;;;;29.45;21.63;;;18.40;99.90;;;;;;5075179;28;20051;-77
2023/09/27 09:45:26;;;;;;;30.98;22.73;;;18.40;99.90;;;;;;5076378;28;20086;-78
2023/09/27 09:47:53;;;;;;;32.67;23.85;;;18.40;99.90;;;;;;5076618;28;20102;-78
2023/09/27 09:50:19;;;;;;;31.98;21.58;;;18.40;99.90;;;;;;5075019;28;20052;-76
2023/09/27 09:52:57;;;;;;;28.77;21.75;;;18.40;99.90;;;;;;5075253;28;20049;-76
2023/09/27 09:55:31;;;;;;;32.38;23.08;;;18.40;99.90;;;;;;5074907;28;20045;-76
2023/09/27 09:58:25;;;;;;;28.48;21.45;;;18.50;99.90;;;;;;5076416;28;20037;-78
2023/09/27 10:00:54;;;;;;;29.92;19.80;;;18.60;99.90;;;;;;5058360;28;20098;-77
2023/09/27 10:03:27;;;;;;;30.00;21.17;;;18.70;99.90;;;;;;5075079;28;20052;-76
2023/09/27 10:06:04;;;;;;;31.13;23.35;;;18.80;99.90;;;;;;5076110;28;20135;-77
2023/09/27 10:08:38;;;;;;;30.27;21.58;;;18.80;99.90;;;;;;5075197;28;20498;-76
2023/09/27 10:11:04;;;;;;;27.25;19.95;;;18.80;99.90;;;;;;5075655;28;20052;-77
2023/09/27 10:13:35;;;;;;;31.10;19.70;;;18.90;99.90;;;;;;5075965;28;20548;-77
2023/09/27 10:16:03;;;;;;;33.92;18.98;;;18.90;99.90;;;;;;5074864;28;20044;-76
2023/09/27 10:18:33;;;;;;;32.15;18.88;;;18.90;99.90;;;;;;5074385;28;20060;-76
2023/09/27 10:21:04;;;;;;;27.50;17.75;;;18.80;99.90;;;;;;5075854;28;20059;-77
2023/09/27 10:23:57;;;;;;;26.17;19.08;;;18.80;99.90;;;;;;5074431;28;20045;-77
2023/09/27 10:26:26;;;;;;;26.63;17.15;;;18.80;99.90;;;;;;5075593;28;20048;-77
2023/09/27 10:29:12;;;;;;;25.05;16.33;;;18.90;99.90;;;;;;5074571;28;20044;-78
2023/09/27 10:31:57;;;;;;;22.08;13.98;;;18.80;99.90;;;;;;5074550;28;20483;-77
2023/09/27 10:34:27;;;;;;;23.85;15.70;;;18.80;99.90;;;;;;5074390;28;20044;-78
2023/09/27 10:36:54;;;;;;;22.67;15.13;;;18.80;99.90;;;;;;5075812;28;20072;-79
2023/09/27 10:39:20;;;;;;;21.75;15.30;;;18.90;99.90;;;;;;5074144;28;20048;-78
2023/09/27 10:41:50;;;;;;;23.48;13.98;;;18.80;99.90;;;;;;5074578;28;20060;-78
2023/09/27 10:44:33;;;;;;;21.88;13.95;;;18.90;99.90;;;;;;5074217;28;20098;-77
2023/09/27 10:47:03;;;;;;;25.92;14.98;;;18.90;99.90;;;;;;5074025;28;20060;-76
2023/09/27 10:49:38;;;;;;;21.35;14.50;;;18.90;99.90;;;;;;5075406;28;20096;-77
2023/09/27 10:52:14;;;;;;;20.63;13.10;;;18.90;99.90;;;;;;5075211;28;20048;-77
2023/09/27 10:54:39;;;;;;;19.60;11.70;;;18.90;99.90;;;;;;5074152;28;20487;-78
2023/09/27 10:57:06;;;;;;;17.98;10.73;;;19.00;99.90;;;;;;5074055;28;20087;-78
2023/09/27 10:59:31;;;;;;;19.88;10.23;;;19.00;99.90;;;;;;5073731;28;20450;-78
2023/09/27 11:02:03;;;;;;;20.30;11.23;;;19.10;99.90;;;;;;5075195;28;20048;-77
2023/09/27 11:04:30;;;;;;;18.67;11.50;;;19.10;99.90;;;;;;5073806;28;20523;-77
2023/09/27 11:06:56;;;;;;;19.83;10.45;;;19.10;99.90;;;;;;5075176;28;20052;-78
2023/09/27 11:09:23;;;;;;;18.17;11.38;;;19.20;99.90;;;;;;5073812;28;20045;-77
2023/09/27 11:11:57;;;;;;;18.10;9.63;;;19.20;99.90;;;;;;5073798;28;20126;-78
2023/09/27 11:14:31;;;;;;;16.58;9.60;;;19.20;99.90;;;;;;5073814;28;20044;-78
2023/09/27 11:17:16;;;;;;;16.55;8.93;;;19.20;99.90;;;;;;5074784;28;20049;-78
2023/09/27 11:19:44;;;;;;;18.27;10.05;;;19.30;99.90;;;;;;5074556;28;20070;-77
2023/09/27 11:22:09;;;;;;;17.38;8.82;;;19.30;99.90;;;;;;5072959;28;20491;-78
2023/09/27 11:24:40;;;;;;;14.10;9.05;;;19.40;99.90;;;;;;5074001;28;20052;-78
2023/09/27 11:27:09;;;;;;;16.27;8.93;;;19.30;99.90;;;;;;5073248;28;20048;-75
2023/09/27 11:29:35;;;;;;;14.13;9.10;;;19.40;99.90;;;;;;5073431;28;20059;-78
2023/09/27 11:32:01;;;;;;;15.38;8.82;;;19.40;99.90;;;;;;5073250;28;20147;-77
2023/09/27 11:34:27;;;;;;;14.77;8.45;;;19.40;99.90;;;;;;5074486;28;20040;-78
2023/09/27 11:37:01;;;;;;;17.38;9.27;;;19.40;99.90;;;;;;5073081;28;20040;-77
2023/09/27 11:39:47;;;;;;;17.25;8.32;;;19.40;99.90;;;;;;5073405;28;20080;-77
2023/09/27 11:42:16;;;;;;;15.75;9.43;;;19.40;99.90;;;;;;5073065;28;20131;-78
2023/09/27 11:44:42;;;;;;;12.95;9.05;;;19.40;99.90;;;;;;5074039;28;20502;-78
2023/09/27 11:47:08;;;;;;;17.08;9.05;;;19.50;99.90;;;;;;5072877;28;20124;-78
2023/09/27 11:49:35;;;;;;;16.27;8.93;;;19.40;99.90;;;;;;5074338;28;20083;-78
2023/09/27 11:52:01;;;;;;;17.27;9.20;;;19.40;99.90;;;;;;5074309;28;20044;-78
2023/09/27 11:54:28;;;;;;;15.90;8.75;;;19.40;99.90;;;;;;5073944;28;20404;-78
2023/09/27 11:56:53;;;;;;;16.17;9.35;;;19.50;99.90;;;;;;5072918;28;20127;-77
2023/09/27 11:59:19;;;;;;;16.80;9.05;;;19.50;99.90;;;;;;5072623;28;20140;-77
2023/09/27 12:01:45;;;;;;;14.18;8.88;;;19.60;99.90;;;;;;5072574;28;20053;-78
2023/09/27 12:04:10;;;;;;;12.65;7.85;;;19.70;99.90;;;;;;5074107;28;20056;-78
2023/09/27 12:06:37;;;;;;;13.85;7.72;;;19.80;99.90;;;;;;5074055;28;20049;-77
2023/09/27 12:09:05;;;;;;;12.10;7.60;;;19.90;99.90;;;;;;5073594;28;20082;-77
2023/09/27 12:11:31;;;;;;;15.48;8.77;;;19.90;99.90;;;;;;5072668;28;20044;-78
2023/09/27 12:13:57;;;;;;;13.07;7.40;;;20.00;99.90;;;;;;5084095;28;20059;-77
2023/09/27 12:16:23;;;;;;;14.30;8.10;;;20.10;99.90;;;;;;5092928;28;20471;-78
2023/09/27 12:18:48;;;;;;;12.95;7.43;;;20.20;99.90;;;;;;5094124;28;20411;-77
2023/09/27 12:21:14;;;;;;;16.90;8.02;;;20.20;99.90;;;;;;5093815;28;20357;-78
2023/09/27 12:23:47;;;;;;;12.30;6.20;;;20.40;99.90;;;;;;5091688;28;20056;-77
2023/09/27 12:26:14;;;;;;;;;;;20.40;99.90;;;;;;5092474;28;20095;-77
2023/09/27 12:28:41;;;;;;;11.45;6.40;;;20.50;99.90;;;;;;5092425;28;19920;-77
2023/09/27 12:31:07;;;;;;;17.45;8.07;;;20.50;99.90;;;;;;5092470;28;20052;-78